sensor_id;sensor_type;location;lat;lon;timestamp;P1;durP1;ratioP1;P2;durP2;ratioP2
9328;SDS011;4703;48.748;19.142;2024-03-02T00:00:28;20.80;;;18.57;;
9328;SDS011;4703;48.748;19.142;2024-03-02T00:02:55;25.10;;;20.13;;
9328;SDS011;4703;48.748;19.142;2024-03-02T00:05:22;23.80;;;18.83;;
9328;SDS011;4703;48.748;19.142;2024-03-02T00:07:53;21.63;;;18.57;;
9328;SDS011;4703;48.748;19.142;2024-03-02T00:10:42;26.40;;;18.50;;
9328;SDS011;4703;48.748;19.142;2024-03-02T00:13:09;22.57;;;17.77;;
9328;SDS011;4703;48.748;19.142;2024-03-02T00:15:40;26.00;;;17.87;;
9328;SDS011;4703;48.748;19.142;2024-03-02T00:18:12;24.00;;;18.50;;
9328;SDS011;4703;48.748;19.142;2024-03-02T00:20:46;19.57;;;16.57;;
9328;SDS011;4703;48.748;19.142;2024-03-02T00:23:16;20.10;;;15.40;;
9328;SDS011;4703;48.748;19.142;2024-03-02T00:25:47;23.37;;;16.47;;
9328;SDS011;4703;48.748;19.142;2024-03-02T00:28:17;20.27;;;15.97;;
9328;SDS011;4703;48.748;19.142;2024-03-02T00:33:36;18.53;;;16.13;;
9328;SDS011;4703;48.748;19.142;2024-03-02T00:36:15;22.90;;;16.20;;
9328;SDS011;4703;48.748;19.142;2024-03-02T00:38:49;23.90;;;15.60;;
9328;SDS011;4703;48.748;19.142;2024-03-02T00:41:20;20.80;;;15.37;;
9328;SDS011;4703;48.748;19.142;2024-03-02T00:44:04;19.30;;;16.00;;
9328;SDS011;4703;48.748;19.142;2024-03-02T00:46:33;22.70;;;15.80;;
9328;SDS011;4703;48.748;19.142;2024-03-02T00:49:21;18.50;;;15.60;;
9328;SDS011;4703;48.748;19.142;2024-03-02T00:51:50;18.43;;;13.50;;
9328;SDS011;4703;48.748;19.142;2024-03-02T00:54:20;16.07;;;14.33;;
9328;SDS011;4703;48.748;19.142;2024-03-02T00:56:52;18.50;;;15.20;;
9328;SDS011;4703;48.748;19.142;2024-03-02T00:59:22;18.30;;;14.40;;
9328;SDS011;4703;48.748;19.142;2024-03-02T01:01:49;16.83;;;13.90;;
9328;SDS011;4703;48.748;19.142;2024-03-02T01:04:17;19.13;;;14.87;;
9328;SDS011;4703;48.748;19.142;2024-03-02T01:06:44;20.40;;;14.53;;
9328;SDS011;4703;48.748;19.142;2024-03-02T01:09:12;16.70;;;12.87;;
9328;SDS011;4703;48.748;19.142;2024-03-02T01:11:39;14.93;;;13.30;;
9328;SDS011;4703;48.748;19.142;2024-03-02T01:14:06;18.13;;;14.60;;
9328;SDS011;4703;48.748;19.142;2024-03-02T01:16:33;20.10;;;14.60;;
9328;SDS011;4703;48.748;19.142;2024-03-02T01:19:00;18.20;;;14.67;;
9328;SDS011;4703;48.748;19.142;2024-03-02T01:21:27;15.37;;;12.20;;
9328;SDS011;4703;48.748;19.142;2024-03-02T01:23:54;14.63;;;12.27;;
9328;SDS011;4703;48.748;19.142;2024-03-02T01:26:21;15.80;;;13.37;;
9328;SDS011;4703;48.748;19.142;2024-03-02T01:28:48;17.67;;;13.33;;
9328;SDS011;4703;48.748;19.142;2024-03-02T01:31:15;19.13;;;12.87;;
9328;SDS011;4703;48.748;19.142;2024-03-02T01:33:42;13.63;;;11.43;;
9328;SDS011;4703;48.748;19.142;2024-03-02T01:36:09;17.53;;;12.73;;
9328;SDS011;4703;48.748;19.142;2024-03-02T01:38:36;18.10;;;14.20;;
9328;SDS011;4703;48.748;19.142;2024-03-02T01:41:03;13.80;;;12.03;;
9328;SDS011;4703;48.748;19.142;2024-03-02T01:43:30;14.30;;;11.97;;
9328;SDS011;4703;48.748;19.142;2024-03-02T01:45:57;17.30;;;14.53;;
9328;SDS011;4703;48.748;19.142;2024-03-02T01:48:25;17.10;;;12.80;;
9328;SDS011;4703;48.748;19.142;2024-03-02T01:50:52;14.80;;;12.23;;
9328;SDS011;4703;48.748;19.142;2024-03-02T01:53:19;19.23;;;13.37;;
9328;SDS011;4703;48.748;19.142;2024-03-02T01:55:46;17.00;;;12.80;;
9328;SDS011;4703;48.748;19.142;2024-03-02T01:58:13;15.77;;;12.43;;
9328;SDS011;4703;48.748;19.142;2024-03-02T02:00:40;16.03;;;13.33;;
9328;SDS011;4703;48.748;19.142;2024-03-02T02:03:07;18.73;;;13.30;;
9328;SDS011;4703;48.748;19.142;2024-03-02T02:05:34;16.10;;;13.27;;
9328;SDS011;4703;48.748;19.142;2024-03-02T02:08:01;17.10;;;13.30;;
9328;SDS011;4703;48.748;19.142;2024-03-02T02:10:29;15.90;;;13.07;;
9328;SDS011;4703;48.748;19.142;2024-03-02T02:12:56;15.07;;;12.67;;
9328;SDS011;4703;48.748;19.142;2024-03-02T02:15:29;15.37;;;12.33;;
9328;SDS011;4703;48.748;19.142;2024-03-02T02:17:57;15.70;;;11.80;;
9328;SDS011;4703;48.748;19.142;2024-03-02T02:20:26;14.97;;;11.90;;
9328;SDS011;4703;48.748;19.142;2024-03-02T02:22:56;14.67;;;12.20;;
9328;SDS011;4703;48.748;19.142;2024-03-02T02:25:24;18.60;;;11.90;;
9328;SDS011;4703;48.748;19.142;2024-03-02T02:27:52;16.93;;;13.27;;
9328;SDS011;4703;48.748;19.142;2024-03-02T02:30:27;18.63;;;12.40;;
9328;SDS011;4703;48.748;19.142;2024-03-02T02:32:57;13.67;;;12.27;;
9328;SDS011;4703;48.748;19.142;2024-03-02T02:35:25;14.40;;;11.13;;
9328;SDS011;4703;48.748;19.142;2024-03-02T02:37:53;13.57;;;11.30;;
9328;SDS011;4703;48.748;19.142;2024-03-02T02:40:22;13.60;;;11.43;;
9328;SDS011;4703;48.748;19.142;2024-03-02T02:42:50;21.23;;;12.57;;
9328;SDS011;4703;48.748;19.142;2024-03-02T02:45:19;13.13;;;11.77;;
9328;SDS011;4703;48.748;19.142;2024-03-02T02:47:47;13.60;;;11.77;;
9328;SDS011;4703;48.748;19.142;2024-03-02T02:50:14;15.23;;;12.07;;
9328;SDS011;4703;48.748;19.142;2024-03-02T02:52:41;20.43;;;13.10;;
9328;SDS011;4703;48.748;19.142;2024-03-02T02:55:10;15.37;;;12.00;;
9328;SDS011;4703;48.748;19.142;2024-03-02T02:57:39;14.23;;;12.60;;
9328;SDS011;4703;48.748;19.142;2024-03-02T03:00:13;14.90;;;12.40;;
9328;SDS011;4703;48.748;19.142;2024-03-02T03:02:47;15.27;;;12.30;;
9328;SDS011;4703;48.748;19.142;2024-03-02T03:05:17;15.13;;;11.53;;
9328;SDS011;4703;48.748;19.142;2024-03-02T03:07:45;17.53;;;12.90;;
9328;SDS011;4703;48.748;19.142;2024-03-02T03:10:12;14.03;;;11.50;;
9328;SDS011;4703;48.748;19.142;2024-03-02T03:12:41;15.60;;;12.50;;
9328;SDS011;4703;48.748;19.142;2024-03-02T03:15:10;13.60;;;12.03;;
9328;SDS011;4703;48.748;19.142;2024-03-02T03:17:42;16.07;;;12.10;;
9328;SDS011;4703;48.748;19.142;2024-03-02T03:20:09;15.33;;;12.80;;
9328;SDS011;4703;48.748;19.142;2024-03-02T03:22:40;17.43;;;11.87;;
9328;SDS011;4703;48.748;19.142;2024-03-02T03:25:07;13.40;;;12.00;;
9328;SDS011;4703;48.748;19.142;2024-03-02T03:27:37;16.50;;;12.30;;
9328;SDS011;4703;48.748;19.142;2024-03-02T03:30:04;14.03;;;11.70;;
9328;SDS011;4703;48.748;19.142;2024-03-02T03:32:32;13.40;;;10.57;;
9328;SDS011;4703;48.748;19.142;2024-03-02T03:34:59;12.10;;;10.80;;
9328;SDS011;4703;48.748;19.142;2024-03-02T03:37:26;17.40;;;11.47;;
9328;SDS011;4703;48.748;19.142;2024-03-02T03:40:02;13.13;;;11.70;;
9328;SDS011;4703;48.748;19.142;2024-03-02T03:42:34;12.83;;;10.63;;
9328;SDS011;4703;48.748;19.142;2024-03-02T03:45:03;14.33;;;11.87;;
9328;SDS011;4703;48.748;19.142;2024-03-02T03:47:33;12.53;;;11.30;;
9328;SDS011;4703;48.748;19.142;2024-03-02T03:50:01;14.83;;;11.50;;
9328;SDS011;4703;48.748;19.142;2024-03-02T03:52:30;12.63;;;10.93;;
9328;SDS011;4703;48.748;19.142;2024-03-02T03:54:57;12.63;;;10.93;;
9328;SDS011;4703;48.748;19.142;2024-03-02T03:57:25;15.17;;;13.57;;
9328;SDS011;4703;48.748;19.142;2024-03-02T03:59:53;16.53;;;12.13;;
9328;SDS011;4703;48.748;19.142;2024-03-02T04:02:20;14.03;;;10.87;;
9328;SDS011;4703;48.748;19.142;2024-03-02T04:04:47;14.53;;;11.70;;
9328;SDS011;4703;48.748;19.142;2024-03-02T04:07:14;12.77;;;11.43;;
9328;SDS011;4703;48.748;19.142;2024-03-02T04:09:41;14.50;;;11.87;;
9328;SDS011;4703;48.748;19.142;2024-03-02T04:12:08;12.93;;;10.87;;
9328;SDS011;4703;48.748;19.142;2024-03-02T04:14:35;11.87;;;10.30;;
9328;SDS011;4703;48.748;19.142;2024-03-02T04:17:04;15.67;;;11.67;;
9328;SDS011;4703;48.748;19.142;2024-03-02T04:19:31;14.80;;;10.30;;
9328;SDS011;4703;48.748;19.142;2024-03-02T04:21:58;14.57;;;11.30;;
9328;SDS011;4703;48.748;19.142;2024-03-02T04:24:34;13.07;;;10.70;;
9328;SDS011;4703;48.748;19.142;2024-03-02T04:27:01;12.60;;;10.57;;
9328;SDS011;4703;48.748;19.142;2024-03-02T04:29:28;14.77;;;11.80;;
9328;SDS011;4703;48.748;19.142;2024-03-02T04:31:55;22.83;;;12.17;;
9328;SDS011;4703;48.748;19.142;2024-03-02T04:34:22;14.90;;;11.70;;
9328;SDS011;4703;48.748;19.142;2024-03-02T04:36:49;14.37;;;11.60;;
9328;SDS011;4703;48.748;19.142;2024-03-02T04:39:16;13.30;;;11.90;;
9328;SDS011;4703;48.748;19.142;2024-03-02T04:41:43;13.73;;;12.13;;
9328;SDS011;4703;48.748;19.142;2024-03-02T04:44:10;15.97;;;12.47;;
9328;SDS011;4703;48.748;19.142;2024-03-02T04:46:37;14.77;;;11.87;;
9328;SDS011;4703;48.748;19.142;2024-03-02T04:49:04;14.53;;;11.10;;
9328;SDS011;4703;48.748;19.142;2024-03-02T04:51:31;14.13;;;10.77;;
9328;SDS011;4703;48.748;19.142;2024-03-02T04:53:58;20.30;;;12.40;;
9328;SDS011;4703;48.748;19.142;2024-03-02T04:56:25;13.93;;;9.50;;
9328;SDS011;4703;48.748;19.142;2024-03-02T04:58:52;11.70;;;9.60;;
9328;SDS011;4703;48.748;19.142;2024-03-02T05:01:19;12.80;;;10.70;;
9328;SDS011;4703;48.748;19.142;2024-03-02T05:03:46;14.00;;;11.90;;
9328;SDS011;4703;48.748;19.142;2024-03-02T05:06:13;10.80;;;9.63;;
9328;SDS011;4703;48.748;19.142;2024-03-02T05:08:40;21.13;;;10.70;;
9328;SDS011;4703;48.748;19.142;2024-03-02T05:11:08;12.10;;;10.27;;
9328;SDS011;4703;48.748;19.142;2024-03-02T05:13:53;17.43;;;12.20;;
9328;SDS011;4703;48.748;19.142;2024-03-02T05:16:20;18.70;;;12.07;;
9328;SDS011;4703;48.748;19.142;2024-03-02T05:18:47;14.10;;;10.40;;
9328;SDS011;4703;48.748;19.142;2024-03-02T05:21:14;15.23;;;11.20;;
9328;SDS011;4703;48.748;19.142;2024-03-02T05:23:41;13.47;;;10.43;;
9328;SDS011;4703;48.748;19.142;2024-03-02T05:26:08;13.00;;;10.40;;
9328;SDS011;4703;48.748;19.142;2024-03-02T05:28:37;13.80;;;10.80;;
9328;SDS011;4703;48.748;19.142;2024-03-02T05:31:05;14.03;;;10.17;;
9328;SDS011;4703;48.748;19.142;2024-03-02T05:33:32;13.87;;;10.20;;
9328;SDS011;4703;48.748;19.142;2024-03-02T05:35:59;17.30;;;11.03;;
9328;SDS011;4703;48.748;19.142;2024-03-02T05:38:28;13.00;;;11.70;;
9328;SDS011;4703;48.748;19.142;2024-03-02T05:40:55;17.80;;;12.40;;
9328;SDS011;4703;48.748;19.142;2024-03-02T05:43:22;17.20;;;12.23;;
9328;SDS011;4703;48.748;19.142;2024-03-02T05:45:49;14.10;;;11.20;;
9328;SDS011;4703;48.748;19.142;2024-03-02T05:48:16;14.07;;;11.10;;
9328;SDS011;4703;48.748;19.142;2024-03-02T05:50:43;17.23;;;11.30;;
9328;SDS011;4703;48.748;19.142;2024-03-02T05:53:10;18.20;;;13.87;;
9328;SDS011;4703;48.748;19.142;2024-03-02T05:55:37;21.60;;;14.77;;
9328;SDS011;4703;48.748;19.142;2024-03-02T05:58:04;18.47;;;14.53;;
9328;SDS011;4703;48.748;19.142;2024-03-02T06:00:49;17.87;;;12.63;;
9328;SDS011;4703;48.748;19.142;2024-03-02T06:03:16;16.23;;;11.77;;
9328;SDS011;4703;48.748;19.142;2024-03-02T06:05:43;19.10;;;14.10;;
9328;SDS011;4703;48.748;19.142;2024-03-02T06:08:10;18.10;;;13.73;;
9328;SDS011;4703;48.748;19.142;2024-03-02T06:10:37;13.97;;;11.80;;
9328;SDS011;4703;48.748;19.142;2024-03-02T06:13:04;14.97;;;11.70;;
9328;SDS011;4703;48.748;19.142;2024-03-02T06:15:31;12.53;;;11.10;;
9328;SDS011;4703;48.748;19.142;2024-03-02T06:17:58;15.23;;;11.13;;
9328;SDS011;4703;48.748;19.142;2024-03-02T06:20:26;18.40;;;11.17;;
9328;SDS011;4703;48.748;19.142;2024-03-02T06:22:53;13.83;;;11.30;;
9328;SDS011;4703;48.748;19.142;2024-03-02T06:25:22;15.37;;;12.50;;
9328;SDS011;4703;48.748;19.142;2024-03-02T06:27:49;14.93;;;11.37;;
9328;SDS011;4703;48.748;19.142;2024-03-02T06:30:16;12.90;;;11.43;;
9328;SDS011;4703;48.748;19.142;2024-03-02T06:32:43;14.00;;;12.50;;
9328;SDS011;4703;48.748;19.142;2024-03-02T06:35:10;15.17;;;13.13;;
9328;SDS011;4703;48.748;19.142;2024-03-02T06:37:38;18.67;;;14.70;;
9328;SDS011;4703;48.748;19.142;2024-03-02T06:40:09;19.20;;;12.57;;
9328;SDS011;4703;48.748;19.142;2024-03-02T06:42:36;19.47;;;12.90;;
9328;SDS011;4703;48.748;19.142;2024-03-02T06:45:03;14.33;;;11.60;;
9328;SDS011;4703;48.748;19.142;2024-03-02T06:47:31;13.07;;;10.97;;
9328;SDS011;4703;48.748;19.142;2024-03-02T06:49:58;15.60;;;12.83;;
9328;SDS011;4703;48.748;19.142;2024-03-02T06:52:25;17.80;;;12.53;;
9328;SDS011;4703;48.748;19.142;2024-03-02T06:54:52;15.80;;;12.00;;
9328;SDS011;4703;48.748;19.142;2024-03-02T06:57:19;16.87;;;12.57;;
9328;SDS011;4703;48.748;19.142;2024-03-02T06:59:47;20.20;;;13.53;;
9328;SDS011;4703;48.748;19.142;2024-03-02T07:02:16;13.10;;;11.70;;
9328;SDS011;4703;48.748;19.142;2024-03-02T07:04:43;21.93;;;13.57;;
9328;SDS011;4703;48.748;19.142;2024-03-02T07:07:11;17.90;;;13.90;;
9328;SDS011;4703;48.748;19.142;2024-03-02T07:09:39;14.23;;;12.03;;
9328;SDS011;4703;48.748;19.142;2024-03-02T07:12:06;16.17;;;12.57;;
9328;SDS011;4703;48.748;19.142;2024-03-02T07:14:33;14.20;;;12.60;;
9328;SDS011;4703;48.748;19.142;2024-03-02T07:17:24;17.30;;;13.80;;
9328;SDS011;4703;48.748;19.142;2024-03-02T07:19:52;23.33;;;14.63;;
9328;SDS011;4703;48.748;19.142;2024-03-02T07:22:19;19.80;;;15.00;;
9328;SDS011;4703;48.748;19.142;2024-03-02T07:24:47;20.00;;;14.80;;
9328;SDS011;4703;48.748;19.142;2024-03-02T07:27:14;19.40;;;14.90;;
9328;SDS011;4703;48.748;19.142;2024-03-02T07:29:43;21.07;;;14.60;;
9328;SDS011;4703;48.748;19.142;2024-03-02T07:32:10;16.23;;;13.90;;
9328;SDS011;4703;48.748;19.142;2024-03-02T07:34:37;17.03;;;14.37;;
9328;SDS011;4703;48.748;19.142;2024-03-02T07:37:05;16.80;;;14.90;;
9328;SDS011;4703;48.748;19.142;2024-03-02T07:39:32;17.13;;;13.90;;
9328;SDS011;4703;48.748;19.142;2024-03-02T07:41:59;18.40;;;15.43;;
9328;SDS011;4703;48.748;19.142;2024-03-02T07:44:27;16.80;;;13.43;;
9328;SDS011;4703;48.748;19.142;2024-03-02T07:46:54;22.73;;;15.60;;
9328;SDS011;4703;48.748;19.142;2024-03-02T07:49:21;25.90;;;16.07;;
9328;SDS011;4703;48.748;19.142;2024-03-02T07:51:48;20.80;;;15.30;;
9328;SDS011;4703;48.748;19.142;2024-03-02T07:54:15;23.30;;;16.50;;
9328;SDS011;4703;48.748;19.142;2024-03-02T07:56:45;20.57;;;14.90;;
9328;SDS011;4703;48.748;19.142;2024-03-02T07:59:13;21.40;;;16.60;;
9328;SDS011;4703;48.748;19.142;2024-03-02T08:01:43;23.23;;;16.20;;
9328;SDS011;4703;48.748;19.142;2024-03-02T08:04:10;18.60;;;16.57;;
9328;SDS011;4703;48.748;19.142;2024-03-02T08:06:37;17.83;;;15.83;;
9328;SDS011;4703;48.748;19.142;2024-03-02T08:09:04;18.70;;;15.60;;
9328;SDS011;4703;48.748;19.142;2024-03-02T08:11:36;17.67;;;15.60;;
9328;SDS011;4703;48.748;19.142;2024-03-02T08:14:03;20.93;;;16.37;;
9328;SDS011;4703;48.748;19.142;2024-03-02T08:16:32;17.30;;;15.27;;
9328;SDS011;4703;48.748;19.142;2024-03-02T08:18:59;18.97;;;16.90;;
9328;SDS011;4703;48.748;19.142;2024-03-02T08:21:32;20.20;;;15.30;;
9328;SDS011;4703;48.748;19.142;2024-03-02T08:24:02;20.30;;;15.80;;
9328;SDS011;4703;48.748;19.142;2024-03-02T08:26:30;18.80;;;15.77;;
9328;SDS011;4703;48.748;19.142;2024-03-02T08:29:00;21.10;;;15.53;;
9328;SDS011;4703;48.748;19.142;2024-03-02T08:31:30;17.87;;;15.57;;
9328;SDS011;4703;48.748;19.142;2024-03-02T08:33:57;18.57;;;14.20;;
9328;SDS011;4703;48.748;19.142;2024-03-02T08:36:25;19.10;;;15.17;;
9328;SDS011;4703;48.748;19.142;2024-03-02T08:38:52;20.70;;;15.73;;
9328;SDS011;4703;48.748;19.142;2024-03-02T08:41:20;20.60;;;16.13;;
9328;SDS011;4703;48.748;19.142;2024-03-02T08:43:50;20.50;;;14.43;;
9328;SDS011;4703;48.748;19.142;2024-03-02T08:46:20;17.80;;;15.20;;
9328;SDS011;4703;48.748;19.142;2024-03-02T08:48:47;20.07;;;14.77;;
9328;SDS011;4703;48.748;19.142;2024-03-02T08:51:16;20.07;;;16.60;;
9328;SDS011;4703;48.748;19.142;2024-03-02T08:53:47;20.70;;;16.03;;
9328;SDS011;4703;48.748;19.142;2024-03-02T08:56:17;21.70;;;15.77;;
9328;SDS011;4703;48.748;19.142;2024-03-02T08:58:50;23.70;;;16.43;;
9328;SDS011;4703;48.748;19.142;2024-03-02T09:01:18;18.47;;;14.80;;
9328;SDS011;4703;48.748;19.142;2024-03-02T09:03:46;20.50;;;15.57;;
9328;SDS011;4703;48.748;19.142;2024-03-02T09:06:13;20.13;;;16.00;;
9328;SDS011;4703;48.748;19.142;2024-03-02T09:08:40;20.70;;;16.00;;
9328;SDS011;4703;48.748;19.142;2024-03-02T09:11:07;18.90;;;15.40;;
9328;SDS011;4703;48.748;19.142;2024-03-02T09:13:34;22.77;;;16.07;;
9328;SDS011;4703;48.748;19.142;2024-03-02T09:16:02;22.23;;;17.00;;
9328;SDS011;4703;48.748;19.142;2024-03-02T09:18:34;20.77;;;16.37;;
9328;SDS011;4703;48.748;19.142;2024-03-02T09:21:01;21.47;;;14.13;;
9328;SDS011;4703;48.748;19.142;2024-03-02T09:23:29;23.30;;;15.50;;
9328;SDS011;4703;48.748;19.142;2024-03-02T09:25:56;23.90;;;15.53;;
9328;SDS011;4703;48.748;19.142;2024-03-02T09:28:23;18.47;;;14.97;;
9328;SDS011;4703;48.748;19.142;2024-03-02T09:30:50;20.20;;;15.70;;
9328;SDS011;4703;48.748;19.142;2024-03-02T09:33:17;19.80;;;15.50;;
9328;SDS011;4703;48.748;19.142;2024-03-02T09:35:45;21.17;;;16.43;;
9328;SDS011;4703;48.748;19.142;2024-03-02T09:38:12;20.80;;;16.97;;
9328;SDS011;4703;48.748;19.142;2024-03-02T09:40:39;19.50;;;15.10;;
9328;SDS011;4703;48.748;19.142;2024-03-02T09:43:08;21.77;;;16.33;;
9328;SDS011;4703;48.748;19.142;2024-03-02T09:45:35;21.40;;;15.80;;
9328;SDS011;4703;48.748;19.142;2024-03-02T09:48:03;21.20;;;16.63;;
9328;SDS011;4703;48.748;19.142;2024-03-02T09:50:30;22.80;;;17.43;;
9328;SDS011;4703;48.748;19.142;2024-03-02T09:52:57;25.83;;;18.33;;
9328;SDS011;4703;48.748;19.142;2024-03-02T09:55:25;25.60;;;18.83;;
9328;SDS011;4703;48.748;19.142;2024-03-02T09:57:52;32.83;;;25.07;;
9328;SDS011;4703;48.748;19.142;2024-03-02T10:00:19;33.20;;;28.50;;
9328;SDS011;4703;48.748;19.142;2024-03-02T10:02:47;29.90;;;22.13;;
9328;SDS011;4703;48.748;19.142;2024-03-02T10:05:23;25.37;;;20.10;;
9328;SDS011;4703;48.748;19.142;2024-03-02T10:07:59;25.30;;;19.70;;
9328;SDS011;4703;48.748;19.142;2024-03-02T10:10:42;23.43;;;18.63;;
9328;SDS011;4703;48.748;19.142;2024-03-02T10:13:10;27.10;;;21.03;;
9328;SDS011;4703;48.748;19.142;2024-03-02T10:15:39;30.00;;;18.50;;
9328;SDS011;4703;48.748;19.142;2024-03-02T10:18:11;20.73;;;18.13;;
9328;SDS011;4703;48.748;19.142;2024-03-02T10:20:40;25.50;;;19.60;;
9328;SDS011;4703;48.748;19.142;2024-03-02T10:25:38;27.43;;;20.93;;
9328;SDS011;4703;48.748;19.142;2024-03-02T10:28:20;25.93;;;20.03;;
9328;SDS011;4703;48.748;19.142;2024-03-02T10:30:47;26.93;;;19.73;;
9328;SDS011;4703;48.748;19.142;2024-03-02T10:33:17;25.20;;;19.33;;
9328;SDS011;4703;48.748;19.142;2024-03-02T10:35:44;27.30;;;20.40;;
9328;SDS011;4703;48.748;19.142;2024-03-02T10:38:11;25.53;;;19.60;;
9328;SDS011;4703;48.748;19.142;2024-03-02T10:40:38;26.00;;;20.10;;
9328;SDS011;4703;48.748;19.142;2024-03-02T10:43:05;27.60;;;20.33;;
9328;SDS011;4703;48.748;19.142;2024-03-02T10:45:34;24.43;;;17.90;;
9328;SDS011;4703;48.748;19.142;2024-03-02T10:48:01;23.80;;;18.73;;
9328;SDS011;4703;48.748;19.142;2024-03-02T10:50:30;22.73;;;18.07;;
9328;SDS011;4703;48.748;19.142;2024-03-02T10:52:57;29.40;;;19.63;;
9328;SDS011;4703;48.748;19.142;2024-03-02T10:55:24;26.03;;;19.97;;
9328;SDS011;4703;48.748;19.142;2024-03-02T10:57:52;28.13;;;18.60;;
9328;SDS011;4703;48.748;19.142;2024-03-02T11:00:24;27.00;;;19.50;;
9328;SDS011;4703;48.748;19.142;2024-03-02T11:02:57;20.90;;;16.57;;
9328;SDS011;4703;48.748;19.142;2024-03-02T11:05:33;19.37;;;16.17;;
9328;SDS011;4703;48.748;19.142;2024-03-02T11:08:07;20.60;;;16.30;;
9328;SDS011;4703;48.748;19.142;2024-03-02T11:10:45;24.03;;;17.00;;
9328;SDS011;4703;48.748;19.142;2024-03-02T11:13:28;20.43;;;15.40;;
9328;SDS011;4703;48.748;19.142;2024-03-02T11:16:05;18.40;;;14.80;;
9328;SDS011;4703;48.748;19.142;2024-03-02T11:18:40;18.70;;;15.60;;
9328;SDS011;4703;48.748;19.142;2024-03-02T11:21:08;20.57;;;15.87;;
9328;SDS011;4703;48.748;19.142;2024-03-02T11:23:36;23.53;;;16.70;;
9328;SDS011;4703;48.748;19.142;2024-03-02T11:26:19;21.63;;;17.00;;
9328;SDS011;4703;48.748;19.142;2024-03-02T11:28:47;22.10;;;17.57;;
9328;SDS011;4703;48.748;19.142;2024-03-02T11:31:14;20.30;;;16.23;;
9328;SDS011;4703;48.748;19.142;2024-03-02T11:33:42;21.70;;;15.87;;
9328;SDS011;4703;48.748;19.142;2024-03-02T11:36:09;23.17;;;17.57;;
9328;SDS011;4703;48.748;19.142;2024-03-02T11:38:38;18.50;;;15.53;;
9328;SDS011;4703;48.748;19.142;2024-03-02T11:41:08;23.00;;;18.07;;
9328;SDS011;4703;48.748;19.142;2024-03-02T11:43:38;25.90;;;19.17;;
9328;SDS011;4703;48.748;19.142;2024-03-02T11:46:09;22.67;;;18.93;;
9328;SDS011;4703;48.748;19.142;2024-03-02T11:48:38;26.77;;;21.43;;
9328;SDS011;4703;48.748;19.142;2024-03-02T11:51:06;23.63;;;18.40;;
9328;SDS011;4703;48.748;19.142;2024-03-02T11:53:33;29.77;;;20.30;;
9328;SDS011;4703;48.748;19.142;2024-03-02T11:56:02;27.33;;;17.87;;
9328;SDS011;4703;48.748;19.142;2024-03-02T11:58:29;19.47;;;16.83;;
9328;SDS011;4703;48.748;19.142;2024-03-02T12:00:56;21.10;;;17.87;;
9328;SDS011;4703;48.748;19.142;2024-03-02T12:03:24;25.40;;;18.03;;
9328;SDS011;4703;48.748;19.142;2024-03-02T12:05:53;25.90;;;16.33;;
9328;SDS011;4703;48.748;19.142;2024-03-02T12:08:21;19.50;;;16.67;;
9328;SDS011;4703;48.748;19.142;2024-03-02T12:11:00;16.73;;;15.03;;
9328;SDS011;4703;48.748;19.142;2024-03-02T12:13:30;18.50;;;15.20;;
9328;SDS011;4703;48.748;19.142;2024-03-02T12:15:57;21.27;;;16.13;;
9328;SDS011;4703;48.748;19.142;2024-03-02T12:18:24;21.37;;;15.87;;
9328;SDS011;4703;48.748;19.142;2024-03-02T12:20:52;22.93;;;15.90;;
9328;SDS011;4703;48.748;19.142;2024-03-02T12:23:24;19.53;;;16.40;;
9328;SDS011;4703;48.748;19.142;2024-03-02T12:25:51;18.80;;;15.70;;
9328;SDS011;4703;48.748;19.142;2024-03-02T12:28:19;20.50;;;15.30;;
9328;SDS011;4703;48.748;19.142;2024-03-02T12:30:46;17.23;;;15.40;;
9328;SDS011;4703;48.748;19.142;2024-03-02T12:33:14;19.47;;;15.43;;
9328;SDS011;4703;48.748;19.142;2024-03-02T12:35:41;19.27;;;16.00;;
9328;SDS011;4703;48.748;19.142;2024-03-02T12:38:09;20.93;;;16.90;;
9328;SDS011;4703;48.748;19.142;2024-03-02T12:40:37;22.07;;;16.60;;
9328;SDS011;4703;48.748;19.142;2024-03-02T12:43:05;18.37;;;15.97;;
9328;SDS011;4703;48.748;19.142;2024-03-02T12:45:34;25.07;;;19.20;;
9328;SDS011;4703;48.748;19.142;2024-03-02T12:48:01;22.57;;;18.77;;
9328;SDS011;4703;48.748;19.142;2024-03-02T12:50:31;23.80;;;17.57;;
9328;SDS011;4703;48.748;19.142;2024-03-02T12:52:58;20.00;;;17.70;;
9328;SDS011;4703;48.748;19.142;2024-03-02T12:55:25;23.00;;;17.00;;
9328;SDS011;4703;48.748;19.142;2024-03-02T12:57:52;26.13;;;17.40;;
9328;SDS011;4703;48.748;19.142;2024-03-02T13:00:20;19.17;;;16.60;;
9328;SDS011;4703;48.748;19.142;2024-03-02T13:02:49;19.67;;;16.17;;
9328;SDS011;4703;48.748;19.142;2024-03-02T13:05:18;24.90;;;16.80;;
9328;SDS011;4703;48.748;19.142;2024-03-02T13:07:47;19.43;;;15.50;;
9328;SDS011;4703;48.748;19.142;2024-03-02T13:10:15;22.90;;;17.17;;
9328;SDS011;4703;48.748;19.142;2024-03-02T13:12:43;23.43;;;17.00;;
9328;SDS011;4703;48.748;19.142;2024-03-02T13:15:10;24.83;;;17.77;;
9328;SDS011;4703;48.748;19.142;2024-03-02T13:17:44;23.70;;;17.03;;
9328;SDS011;4703;48.748;19.142;2024-03-02T13:20:15;23.10;;;17.33;;
9328;SDS011;4703;48.748;19.142;2024-03-02T13:22:44;20.17;;;16.60;;
9328;SDS011;4703;48.748;19.142;2024-03-02T13:25:11;24.20;;;17.97;;
9328;SDS011;4703;48.748;19.142;2024-03-02T13:27:39;22.70;;;17.53;;
9328;SDS011;4703;48.748;19.142;2024-03-02T13:30:06;25.67;;;19.83;;
9328;SDS011;4703;48.748;19.142;2024-03-02T13:32:36;21.53;;;17.13;;
9328;SDS011;4703;48.748;19.142;2024-03-02T13:35:03;16.83;;;15.13;;
9328;SDS011;4703;48.748;19.142;2024-03-02T13:37:31;21.50;;;16.57;;
9328;SDS011;4703;48.748;19.142;2024-03-02T13:39:58;23.67;;;17.53;;
9328;SDS011;4703;48.748;19.142;2024-03-02T13:42:26;19.37;;;16.90;;
9328;SDS011;4703;48.748;19.142;2024-03-02T13:44:54;19.90;;;17.43;;
9328;SDS011;4703;48.748;19.142;2024-03-02T13:47:21;21.33;;;16.60;;
9328;SDS011;4703;48.748;19.142;2024-03-02T13:49:48;23.57;;;17.70;;
9328;SDS011;4703;48.748;19.142;2024-03-02T13:52:15;24.47;;;17.83;;
9328;SDS011;4703;48.748;19.142;2024-03-02T13:54:45;26.40;;;19.67;;
9328;SDS011;4703;48.748;19.142;2024-03-02T13:57:13;25.83;;;19.10;;
9328;SDS011;4703;48.748;19.142;2024-03-02T13:59:41;24.33;;;19.50;;
9328;SDS011;4703;48.748;19.142;2024-03-02T14:02:09;24.80;;;18.30;;
9328;SDS011;4703;48.748;19.142;2024-03-02T14:04:38;22.40;;;17.60;;
9328;SDS011;4703;48.748;19.142;2024-03-02T14:07:06;26.53;;;18.97;;
9328;SDS011;4703;48.748;19.142;2024-03-02T14:09:34;21.77;;;17.80;;
9328;SDS011;4703;48.748;19.142;2024-03-02T14:12:01;24.67;;;20.17;;
9328;SDS011;4703;48.748;19.142;2024-03-02T14:14:29;32.20;;;20.20;;
9328;SDS011;4703;48.748;19.142;2024-03-02T14:16:56;31.77;;;23.37;;
9328;SDS011;4703;48.748;19.142;2024-03-02T14:19:26;27.20;;;20.83;;
9328;SDS011;4703;48.748;19.142;2024-03-02T14:21:53;28.00;;;22.07;;
9328;SDS011;4703;48.748;19.142;2024-03-02T14:24:20;27.37;;;20.00;;
9328;SDS011;4703;48.748;19.142;2024-03-02T14:26:52;21.80;;;17.80;;
9328;SDS011;4703;48.748;19.142;2024-03-02T14:29:28;24.07;;;19.67;;
9328;SDS011;4703;48.748;19.142;2024-03-02T14:31:56;22.53;;;18.27;;
9328;SDS011;4703;48.748;19.142;2024-03-02T14:34:23;23.53;;;18.90;;
9328;SDS011;4703;48.748;19.142;2024-03-02T14:36:50;23.30;;;18.60;;
9328;SDS011;4703;48.748;19.142;2024-03-02T14:39:17;24.03;;;19.17;;
9328;SDS011;4703;48.748;19.142;2024-03-02T14:41:45;23.73;;;18.60;;
9328;SDS011;4703;48.748;19.142;2024-03-02T14:44:13;23.23;;;18.23;;
9328;SDS011;4703;48.748;19.142;2024-03-02T14:46:40;25.77;;;19.33;;
9328;SDS011;4703;48.748;19.142;2024-03-02T14:49:09;25.30;;;19.97;;